Airfield :
LOGIN :

Register | Disclaimer

   EN    FR    IT 

 










Legend :    VFR   Marginal VFR   IFR   Intensive IFR   Very Intensive IFR
Visi :
Ceiling :
>= 8 km
>= 3000ft
5 to 8 km
1000 to 3000 ft
1500m to 5 km
500 to 1000 ft
800 to 1500m
200 to 500 ft
< 800m
< 200 ft
Symbols :   Thunderstorms  Fog  Heavy snow  Heavy precipitations  Wind > 20 kt
SIGMETs :     Misc.  Thunderstorms  Icing  Turbulence  Mountain Waves  Volcanic Ashes






- Airport Elevation : 20 ft


EBFN - Koksijde

CURRENT METAR :
  • 180525Z AUTO 33003KT 9999 SCT018/// BKN170/// 04/02 Q1024 WHT

EXPIRED METARs :
  • 180507Z AUTO 33003KT 9999 SCT017/// BKN200/// 04/02 Q1024 WHT
  • 180455Z AUTO 33003KT 9999 FEW017/// BKN210/// 03/02 Q1024 BLU
  • 180425Z AUTO 33003KT 9999 FEW019/// 04/02 Q1024 BLU
  • 180355Z AUTO VRB02KT 9999 FEW017/// 04/02 Q1024 BLU
  • 180325Z AUTO VRB02KT 9999 BKN017/// BKN170/// 04/02 Q1024 WHT
  • 180303Z AUTO VRB01KT 9999 SCT016/// BKN170/// 05/03 Q1024 WHT
  • 180255Z AUTO VRB02KT 9999 FEW016/// BKN180/// 05/03 Q1024 BLU

TAF TAF EBFN
Valid from the 17 at 19:00 until the 18 at 07:00 UTC


171541Z 1719/1807 01010KT 9999 SCT200
BECMG 1800/1802 SCT015
PROB40
TEMPO 1803/1806 36006KT SCT010 BY EBWM



MET'MAP, your aeronautical weather chart ! - Copyright ORBIFLY December 2007 - Disclaimer

ORBIFLY MET'MAP TEAM :

Programming & Development : Alexandra Zaïnal
Concept & original design : Baudouin d'Aumeries
Assistance for programming : Marc-Olivier Méhu
Technical & hardware support : Manuel Goepfert

Contact : metmap@orbifly.com




SOURCES & CREDITS :

   NOAA